createdAt,value
2023-02-12T00:01:29.297Z,11.07
2023-02-12T00:03:58.248Z,11.08
2023-02-12T00:06:28.632Z,11.08
2023-02-12T00:08:58.903Z,11.16
2023-02-12T00:11:29.810Z,11.16
2023-02-12T00:13:59.227Z,11.18
2023-02-12T00:16:29.699Z,11.21
2023-02-12T00:18:59.577Z,11.22
2023-02-12T00:21:29.962Z,11.19
2023-02-12T00:23:59.018Z,11.17
2023-02-12T00:26:27.656Z,11.15
2023-02-12T00:28:56.598Z,11.13
2023-02-12T00:31:27.355Z,11.14
2023-02-12T00:33:56.731Z,11.20
2023-02-12T00:36:30.876Z,11.23
2023-02-12T00:39:00.911Z,11.22
2023-02-12T00:41:29.726Z,11.24
2023-02-12T00:43:58.748Z,11.28
2023-02-12T00:46:27.497Z,11.21
2023-02-12T00:48:56.207Z,11.16
2023-02-12T00:51:24.836Z,11.06
2023-02-12T00:53:54.847Z,11.00
2023-02-12T00:56:23.471Z,11.03
2023-02-12T00:58:52.097Z,11.08
2023-02-12T01:01:21.082Z,11.11
2023-02-12T01:03:49.824Z,11.12
2023-02-12T01:06:18.444Z,11.14
2023-02-12T01:08:47.029Z,11.18
2023-02-12T01:11:17.092Z,11.18
2023-02-12T01:13:45.685Z,11.22
2023-02-12T01:16:18.159Z,11.15
2023-02-12T01:18:48.050Z,11.19
2023-02-12T01:21:19.192Z,11.21
2023-02-12T01:23:48.795Z,11.19
2023-02-12T01:26:20.697Z,11.18
2023-02-12T01:28:53.203Z,11.18
2023-02-12T01:31:24.768Z,11.18
2023-02-12T01:33:55.210Z,11.19
2023-02-12T01:36:24.841Z,11.19
2023-02-12T01:38:53.443Z,11.18
2023-02-12T01:41:25.631Z,11.09
2023-02-12T01:44:10.639Z,11.12
2023-02-12T01:46:40.017Z,11.13
2023-02-12T01:49:13.647Z,11.07
2023-02-12T01:51:44.491Z,11.12
2023-02-12T01:54:16.324Z,11.15
2023-02-12T01:56:46.737Z,11.18
2023-02-12T01:59:15.615Z,11.17
2023-02-12T02:01:44.779Z,11.18
2023-02-12T02:04:18.474Z,11.20
2023-02-12T02:06:51.765Z,11.19
2023-02-12T02:09:21.567Z,11.14
2023-02-12T02:12:09.156Z,11.15
2023-02-12T02:14:38.524Z,11.16
2023-02-12T02:17:45.131Z,11.22
2023-02-12T02:20:44.581Z,11.19
2023-02-12T02:23:54.744Z,11.21
2023-02-12T02:26:56.361Z,11.19
2023-02-12T02:29:59.418Z,11.22
2023-02-12T02:32:33.681Z,11.17
2023-02-12T02:35:10.417Z,11.14
2023-02-12T02:37:45.425Z,11.10
2023-02-12T02:40:19.450Z,11.08
2023-02-12T02:42:54.589Z,11.09
2023-02-12T02:45:29.259Z,11.05
2023-02-12T02:48:04.930Z,11.09
2023-02-12T02:50:40.746Z,11.13
2023-02-12T02:53:14.410Z,11.15
2023-02-12T02:55:46.986Z,11.13
2023-02-12T02:58:19.861Z,11.18
2023-02-12T03:00:55.248Z,11.16
2023-02-12T03:03:30.387Z,11.16
2023-02-12T03:06:03.500Z,11.14
2023-02-12T03:08:36.939Z,11.17
2023-02-12T03:11:11.113Z,11.09
2023-02-12T03:13:45.372Z,11.02
2023-02-12T03:16:19.418Z,11.09
2023-02-12T03:18:55.903Z,11.01
2023-02-12T03:21:31.599Z,10.91
2023-02-12T03:24:06.174Z,10.87
2023-02-12T03:26:41.653Z,10.93
2023-02-12T03:29:10.483Z,10.93
2023-02-12T03:31:51.555Z,10.96
2023-02-12T03:34:31.377Z,10.99
2023-02-12T03:37:06.666Z,10.94
2023-02-12T03:39:44.245Z,10.91
2023-02-12T03:42:20.376Z,10.98
2023-02-12T03:44:54.271Z,10.92
2023-02-12T03:47:27.048Z,10.95
2023-02-12T03:50:04.284Z,11.00
2023-02-12T03:52:33.255Z,11.02
2023-02-12T03:55:02.071Z,11.12
2023-02-12T03:57:35.434Z,11.09
2023-02-12T04:00:06.741Z,11.09
2023-02-12T04:02:35.938Z,11.07
2023-02-12T04:05:09.328Z,11.17
2023-02-12T04:07:38.358Z,11.20
2023-02-12T04:10:08.056Z,11.15
2023-02-12T04:12:42.429Z,11.16
2023-02-12T04:15:36.409Z,11.09
2023-02-12T04:18:14.310Z,11.06
2023-02-12T04:20:57.301Z,11.11
2023-02-12T04:23:52.350Z,11.08
2023-02-12T04:26:27.890Z,11.13
2023-02-12T04:29:09.296Z,11.15
2023-02-12T04:31:45.774Z,11.09
2023-02-12T04:34:20.038Z,11.09
2023-02-12T04:36:55.944Z,11.14
2023-02-12T04:39:28.845Z,11.12
2023-02-12T04:42:00.652Z,11.13
2023-02-12T04:44:30.940Z,11.01
2023-02-12T04:46:59.698Z,11.07
2023-02-12T04:49:28.681Z,11.07
2023-02-12T04:51:58.733Z,11.00
2023-02-12T04:54:27.346Z,11.04
2023-02-12T04:56:56.207Z,11.08
2023-02-12T04:59:24.777Z,11.05
2023-02-12T05:01:54.219Z,11.08
2023-02-12T05:04:22.986Z,11.06
2023-02-12T05:06:51.594Z,11.12
2023-02-12T05:09:22.437Z,11.18
2023-02-12T05:11:51.248Z,11.16
2023-02-12T05:14:19.912Z,11.11
2023-02-12T05:16:48.543Z,11.13
2023-02-12T05:19:17.194Z,11.21
2023-02-12T05:21:45.833Z,11.12
2023-02-12T05:24:14.463Z,11.06
2023-02-12T05:26:44.455Z,11.14
2023-02-12T05:29:13.078Z,11.17
2023-02-12T05:31:41.813Z,11.17
2023-02-12T05:34:12.983Z,11.17
2023-02-12T05:36:42.434Z,11.17
2023-02-12T05:39:11.669Z,11.12
2023-02-12T05:41:40.251Z,11.13
2023-02-12T05:44:12.048Z,11.18
2023-02-12T05:46:40.745Z,11.19
2023-02-12T05:49:09.773Z,11.16
2023-02-12T05:51:39.104Z,11.17
2023-02-12T05:54:09.596Z,11.14
2023-02-12T05:56:42.852Z,11.21
2023-02-12T05:59:16.960Z,11.13
2023-02-12T06:01:47.027Z,11.08
2023-02-12T06:04:18.265Z,11.14
2023-02-12T06:06:47.059Z,11.07
2023-02-12T06:09:16.094Z,11.08
2023-02-12T06:11:45.209Z,11.09
2023-02-12T06:14:17.355Z,11.10
2023-02-12T06:16:47.681Z,11.03
2023-02-12T06:19:16.423Z,11.08
2023-02-12T06:21:45.186Z,11.03
2023-02-12T06:24:15.978Z,11.05
2023-02-12T06:26:45.102Z,11.06
2023-02-12T06:29:15.116Z,11.11
2023-02-12T06:31:44.001Z,11.06
2023-02-12T06:34:14.388Z,11.03
2023-02-12T06:36:45.573Z,11.00
2023-02-12T06:39:16.474Z,11.00
2023-02-12T06:41:45.125Z,11.07
2023-02-12T06:44:15.716Z,11.05
2023-02-12T06:46:44.459Z,11.08
2023-02-12T06:49:16.306Z,11.08
2023-02-12T06:51:45.019Z,11.14
2023-02-12T06:54:18.438Z,11.09
2023-02-12T06:56:47.092Z,11.07
2023-02-12T06:59:18.262Z,11.11
2023-02-12T07:01:47.015Z,11.08
2023-02-12T07:04:15.771Z,10.99
2023-02-12T07:06:44.436Z,11.02
2023-02-12T07:09:13.052Z,11.03
2023-02-12T07:11:41.637Z,11.08
2023-02-12T07:14:14.610Z,11.17
2023-02-12T07:16:44.736Z,11.22
2023-02-12T07:19:16.456Z,11.18
2023-02-12T07:21:45.422Z,11.08
2023-02-12T07:24:15.449Z,11.12
2023-02-12T07:26:44.050Z,11.10
2023-02-12T07:29:12.970Z,11.14
2023-02-12T07:31:43.311Z,11.18
2023-02-12T07:34:12.622Z,11.24
2023-02-12T07:36:42.211Z,11.24
2023-02-12T07:39:14.103Z,11.25
2023-02-12T07:41:42.699Z,11.26
2023-02-12T07:44:13.499Z,11.22
2023-02-12T07:46:48.177Z,11.21
2023-02-12T07:49:19.075Z,11.27
2023-02-12T07:55:29.306Z,11.29
2023-02-12T07:58:14.575Z,11.29
2023-02-12T08:00:47.875Z,11.33
2023-02-12T08:03:19.193Z,11.35
2023-02-12T08:09:35.187Z,11.36
2023-02-12T08:12:40.233Z,11.38
2023-02-12T08:19:10.858Z,11.23
2023-02-12T08:22:08.382Z,11.25
2023-02-12T08:28:25.350Z,11.19
2023-02-12T08:31:39.069Z,10.98
2023-02-12T08:37:57.440Z,11.42
2023-02-12T08:41:06.848Z,11.53
2023-02-12T08:51:08.990Z,11.46
2023-02-12T08:53:40.356Z,11.51
2023-02-12T08:56:10.259Z,11.57
2023-02-12T08:58:39.238Z,11.67
2023-02-12T09:01:11.749Z,11.54
2023-02-12T09:03:40.598Z,11.68
2023-02-12T09:06:10.283Z,11.85
2023-02-12T09:08:41.263Z,11.82
2023-02-12T09:11:12.857Z,11.68
2023-02-12T09:13:41.970Z,11.73
2023-02-12T09:16:11.053Z,11.93
2023-02-12T09:18:40.358Z,11.99
2023-02-12T09:21:11.297Z,12.07
2023-02-12T09:23:41.658Z,11.97
2023-02-12T09:26:12.231Z,12.16
2023-02-12T09:28:40.934Z,12.19
2023-02-12T09:31:11.644Z,12.21
2023-02-12T09:33:40.455Z,12.01
2023-02-12T09:36:11.983Z,12.05
2023-02-12T09:38:42.014Z,12.22
2023-02-12T09:41:38.764Z,12.23
2023-02-12T09:44:13.279Z,12.35
2023-02-12T09:46:49.566Z,12.41
2023-02-12T09:49:27.873Z,12.45
2023-02-12T09:51:58.032Z,12.48
2023-02-12T09:54:36.453Z,12.50
2023-02-12T09:57:20.645Z,12.44
2023-02-12T09:59:53.814Z,12.48
2023-02-12T10:02:25.003Z,12.50
2023-02-12T10:05:01.173Z,12.61
2023-02-12T10:07:58.022Z,12.66
2023-02-12T10:10:41.151Z,12.75
2023-02-12T10:13:19.956Z,12.76
2023-02-12T10:15:57.329Z,12.74
2023-02-12T10:18:49.848Z,12.64
2023-02-12T10:21:29.245Z,12.54
2023-02-12T10:24:14.328Z,12.61
2023-02-12T10:26:49.145Z,12.64
2023-02-12T10:29:21.516Z,12.62
2023-02-12T10:31:54.309Z,12.66
2023-02-12T10:34:26.208Z,12.06
2023-02-12T10:37:02.755Z,12.24
2023-02-12T10:39:36.409Z,12.49
2023-02-12T10:42:13.581Z,12.72
2023-02-12T10:44:42.165Z,12.82
2023-02-12T10:47:20.720Z,12.91
2023-02-12T10:49:57.202Z,12.89
2023-02-12T10:52:37.852Z,12.73
2023-02-12T10:55:26.869Z,12.67
2023-02-12T10:57:57.893Z,12.65
2023-02-12T11:00:30.730Z,11.84
2023-02-12T11:03:21.499Z,12.28
2023-02-12T11:05:50.906Z,12.38
2023-02-12T11:08:32.750Z,12.49
2023-02-12T11:11:10.898Z,12.60
2023-02-12T11:13:45.739Z,12.16
2023-02-12T11:16:15.097Z,12.34
2023-02-12T11:18:44.441Z,12.55
2023-02-12T11:21:14.386Z,12.81
2023-02-12T11:23:45.252Z,12.90
2023-02-12T11:26:27.576Z,12.91
2023-02-12T11:29:00.375Z,12.47
2023-02-12T11:31:30.022Z,12.51
2023-02-12T11:34:16.453Z,12.52
2023-02-12T11:36:47.752Z,12.33
2023-02-12T11:39:22.474Z,12.43
2023-02-12T11:41:55.209Z,12.41
2023-02-12T11:44:28.434Z,12.46
2023-02-12T11:46:59.857Z,12.67
2023-02-12T11:49:32.914Z,12.63
2023-02-12T11:52:03.936Z,12.66
2023-02-12T11:54:39.994Z,12.66
2023-02-12T11:57:08.739Z,12.51
2023-02-12T11:59:42.760Z,12.56
2023-02-12T12:02:25.886Z,12.18
2023-02-12T12:04:57.276Z,12.29
2023-02-12T12:07:30.583Z,12.57
2023-02-12T12:10:04.758Z,12.77
2023-02-12T12:12:42.832Z,12.80
2023-02-12T12:15:40.850Z,12.61
2023-02-12T12:18:40.638Z,12.83
2023-02-12T12:21:15.237Z,12.67
2023-02-12T12:23:47.285Z,12.51
2023-02-12T12:26:23.672Z,12.65
2023-02-12T12:28:58.527Z,11.85
2023-02-12T12:31:33.268Z,12.16
2023-02-12T12:34:08.798Z,12.15
2023-02-12T12:37:16.505Z,12.44
2023-02-12T12:40:00.626Z,12.12
2023-02-12T12:43:01.814Z,12.17
2023-02-12T12:46:05.297Z,12.29
2023-02-12T12:48:49.311Z,12.04
2023-02-12T12:51:33.006Z,12.31
2023-02-12T12:54:19.378Z,12.52
2023-02-12T12:57:02.495Z,12.50
2023-02-12T12:59:45.788Z,12.68
2023-02-12T13:02:48.398Z,11.96
2023-02-12T13:05:50.452Z,12.32
2023-02-12T13:08:36.242Z,12.54
2023-02-12T13:11:14.262Z,12.81
2023-02-12T13:13:47.248Z,12.83
2023-02-12T13:16:22.613Z,12.82
2023-02-12T13:19:00.167Z,12.34
2023-02-12T13:21:43.433Z,12.40
2023-02-12T13:24:25.957Z,12.54
2023-02-12T13:26:58.191Z,12.67
2023-02-12T13:29:30.849Z,12.58
2023-02-12T13:32:03.705Z,12.83
2023-02-12T13:34:35.635Z,12.87
2023-02-12T13:37:08.651Z,12.61
2023-02-12T13:39:41.426Z,12.15
2023-02-12T13:42:22.660Z,12.56
2023-02-12T13:45:01.116Z,12.66
2023-02-12T13:47:39.817Z,12.38
2023-02-12T13:50:21.824Z,12.42
2023-02-12T13:52:59.180Z,12.40
2023-02-12T13:55:34.913Z,12.31
2023-02-12T13:58:40.464Z,11.64
2023-02-12T14:01:11.713Z,11.98
2023-02-12T14:03:41.271Z,12.26
2023-02-12T14:06:16.721Z,12.67
2023-02-12T14:08:49.677Z,12.69
2023-02-12T14:11:21.409Z,12.62
2023-02-12T14:13:57.297Z,12.80
2023-02-12T14:16:41.486Z,12.81
2023-02-12T14:19:53.760Z,12.36
2023-02-12T14:22:55.733Z,12.59
2023-02-12T14:25:44.795Z,12.73
2023-02-12T14:28:35.476Z,11.85
2023-02-12T14:31:24.380Z,12.13
2023-02-12T14:33:54.688Z,11.80
2023-02-12T14:36:40.831Z,11.49
2023-02-12T14:39:30.391Z,11.65
2023-02-12T14:42:38.934Z,12.25
2023-02-12T14:45:28.024Z,12.07
2023-02-12T14:47:56.679Z,12.02
2023-02-12T14:50:32.784Z,12.27
2023-02-12T14:53:09.256Z,12.14
2023-02-12T14:55:37.946Z,11.71
2023-02-12T14:58:19.013Z,12.02
2023-02-12T15:00:51.117Z,12.05
2023-02-12T15:03:25.261Z,11.93
2023-02-12T15:06:04.095Z,12.03
2023-02-12T15:08:49.941Z,12.19
2023-02-12T15:11:38.673Z,11.81
2023-02-12T15:14:14.516Z,11.92
2023-02-12T15:17:00.089Z,11.54
2023-02-12T15:19:40.931Z,11.19
2023-02-12T15:22:25.966Z,11.28
2023-02-12T15:24:54.819Z,11.61
2023-02-12T15:27:23.512Z,11.67
2023-02-12T15:29:54.936Z,11.57
2023-02-12T15:32:26.539Z,12.11
2023-02-12T15:34:56.367Z,12.16
2023-02-12T15:37:28.378Z,12.36
2023-02-12T15:40:00.321Z,12.13
2023-02-12T15:42:32.721Z,12.07
2023-02-12T15:45:22.468Z,12.11
2023-02-12T15:48:06.504Z,12.21
2023-02-12T15:50:37.059Z,12.45
2023-02-12T15:53:05.745Z,12.53
2023-02-12T15:55:41.019Z,12.44
2023-02-12T15:58:23.095Z,12.58
2023-02-12T16:00:54.414Z,12.01
2023-02-12T16:03:25.972Z,11.93
2023-02-12T16:05:57.739Z,12.17
2023-02-12T16:08:27.140Z,12.35
2023-02-12T16:10:58.905Z,12.47
2023-02-12T16:13:32.290Z,12.44
2023-02-12T16:16:17.287Z,12.42
2023-02-12T16:18:46.653Z,12.20
2023-02-12T16:21:19.425Z,12.25
2023-02-12T16:23:50.325Z,12.26
2023-02-12T16:26:20.840Z,12.41
2023-02-12T16:28:50.914Z,12.45
2023-02-12T16:31:23.009Z,12.30
2023-02-12T16:33:55.603Z,12.42
2023-02-12T16:36:33.024Z,12.48
2023-02-12T16:39:03.889Z,12.46
2023-02-12T16:41:33.803Z,12.17
2023-02-12T16:44:31.584Z,12.31
2023-02-12T16:47:03.792Z,12.32
2023-02-12T16:49:32.424Z,12.44
2023-02-12T16:52:29.064Z,12.32
2023-02-12T16:54:57.845Z,12.43
2023-02-12T16:57:26.589Z,12.47
2023-02-12T16:59:55.202Z,12.51
2023-02-12T17:02:25.286Z,12.55
2023-02-12T17:04:56.675Z,12.58
2023-02-12T17:07:29.153Z,12.60
2023-02-12T17:09:58.003Z,12.60
2023-02-12T17:12:27.077Z,12.53
2023-02-12T17:14:55.905Z,12.55
2023-02-12T17:17:25.882Z,12.58
2023-02-12T17:19:54.484Z,12.63
2023-02-12T17:22:27.408Z,12.68
2023-02-12T17:24:56.087Z,12.63
2023-02-12T17:27:24.738Z,12.68
2023-02-12T17:29:53.331Z,12.72
2023-02-12T17:32:24.532Z,12.73
2023-02-12T17:34:54.596Z,12.66
2023-02-12T17:37:24.662Z,12.71
2023-02-12T17:39:53.330Z,12.78
2023-02-12T17:42:21.949Z,12.73
2023-02-12T17:44:50.567Z,12.81
2023-02-12T17:47:19.261Z,12.76
2023-02-12T17:49:47.849Z,12.69
2023-02-12T17:52:17.860Z,12.62
2023-02-12T17:54:46.699Z,12.28
2023-02-12T17:57:15.915Z,12.48
2023-02-12T17:59:44.538Z,12.40
2023-02-12T18:02:13.712Z,12.48
2023-02-12T18:04:42.439Z,12.45
2023-02-12T18:07:11.320Z,12.38
2023-02-12T18:09:41.307Z,12.37
2023-02-12T18:12:10.269Z,12.41
2023-02-12T18:14:38.986Z,12.51
2023-02-12T18:17:07.631Z,12.50
2023-02-12T18:19:36.550Z,12.60
2023-02-12T18:22:05.227Z,12.63
2023-02-12T18:24:35.062Z,12.49
2023-02-12T18:27:05.147Z,12.38
2023-02-12T18:29:34.006Z,11.75
2023-02-12T18:32:02.642Z,11.77
2023-02-12T18:34:31.357Z,11.98
2023-02-12T18:37:00.101Z,11.87
2023-02-12T18:39:29.212Z,11.88
2023-02-12T18:41:57.829Z,11.78
2023-02-12T18:44:27.843Z,11.90
2023-02-12T18:46:57.406Z,11.82
2023-02-12T18:49:26.359Z,11.83
2023-02-12T18:51:55.207Z,11.49
2023-02-12T18:54:23.898Z,11.77
2023-02-12T18:56:54.178Z,11.91
2023-02-12T18:59:24.252Z,11.79
2023-02-12T19:01:56.039Z,11.90
2023-02-12T19:04:27.801Z,11.87
2023-02-12T19:06:56.943Z,11.93
2023-02-12T19:09:27.130Z,11.85
2023-02-12T19:11:57.585Z,11.71
2023-02-12T19:14:27.776Z,11.17
2023-02-12T19:16:57.903Z,11.47
2023-02-12T19:19:26.939Z,11.73
2023-02-12T19:21:55.543Z,11.99
2023-02-12T19:24:24.144Z,12.16
2023-02-12T19:26:53.814Z,12.08
2023-02-12T19:29:22.422Z,11.93
2023-02-12T19:31:51.128Z,11.70
2023-02-12T19:34:24.832Z,11.71
2023-02-12T19:36:53.686Z,11.37
2023-02-12T19:39:25.025Z,11.26
2023-02-12T19:41:54.543Z,11.62
2023-02-12T19:44:25.285Z,11.79
2023-02-12T19:46:54.993Z,11.42
2023-02-12T19:49:26.925Z,11.44
2023-02-12T19:51:56.032Z,11.41
2023-02-12T19:54:25.661Z,11.94
2023-02-12T19:56:55.318Z,11.79
2023-02-12T19:59:25.738Z,12.04
2023-02-12T20:01:56.174Z,11.82
2023-02-12T20:04:26.920Z,12.00
2023-02-12T20:06:55.548Z,12.18
2023-02-12T20:09:24.715Z,11.72
2023-02-12T20:11:53.438Z,11.72
2023-02-12T20:14:22.837Z,11.98
2023-02-12T20:16:52.297Z,12.26
2023-02-12T20:19:26.790Z,11.27
2023-02-12T20:21:56.757Z,11.47
2023-02-12T20:24:26.376Z,11.63
2023-02-12T20:26:55.624Z,11.74
2023-02-12T20:29:25.140Z,12.18
2023-02-12T20:31:53.902Z,12.38
2023-02-12T20:34:23.180Z,12.17
2023-02-12T20:36:53.995Z,11.89
2023-02-12T20:39:22.953Z,12.11
2023-02-12T20:41:51.648Z,12.22
2023-02-12T20:44:22.838Z,12.26
2023-02-12T20:46:56.387Z,12.12
2023-02-12T20:49:26.265Z,11.63
2023-02-12T20:51:56.395Z,11.58
2023-02-12T20:54:25.922Z,11.93
2023-02-12T20:56:54.522Z,11.83
2023-02-12T20:59:23.114Z,11.71
2023-02-12T21:01:51.970Z,11.67
2023-02-12T21:04:21.311Z,11.55
2023-02-12T21:06:50.056Z,11.64
2023-02-12T21:09:20.230Z,11.70
2023-02-12T21:11:49.654Z,11.59
2023-02-12T21:14:22.260Z,11.86
2023-02-12T21:16:51.942Z,11.96
2023-02-12T21:19:20.845Z,11.96
2023-02-12T21:21:49.671Z,11.36
2023-02-12T21:24:21.778Z,11.54
2023-02-12T21:26:51.162Z,11.68
2023-02-12T21:29:20.394Z,11.56
2023-02-12T21:31:51.193Z,11.68
2023-02-12T21:34:22.259Z,11.33
2023-02-12T21:36:53.475Z,11.73
2023-02-12T21:39:26.398Z,11.69
2023-02-12T21:41:56.756Z,11.76
2023-02-12T21:44:26.700Z,11.33
2023-02-12T21:46:56.284Z,10.98
2023-02-12T21:49:28.717Z,11.46
2023-02-12T21:51:58.824Z,11.89
2023-02-12T21:54:29.255Z,11.82
2023-02-12T21:56:58.545Z,11.51
2023-02-12T21:59:30.668Z,11.78
2023-02-12T22:02:01.805Z,11.61
2023-02-12T22:04:31.081Z,11.79
2023-02-12T22:07:03.187Z,11.81
2023-02-12T22:09:33.660Z,11.94
2023-02-12T22:12:02.233Z,11.96
2023-02-12T22:14:31.074Z,12.11
2023-02-12T22:16:59.804Z,11.47
2023-02-12T22:19:28.501Z,11.64
2023-02-12T22:21:57.167Z,12.01
2023-02-12T22:24:25.750Z,12.01
2023-02-12T22:26:56.137Z,12.07
2023-02-12T22:29:24.760Z,12.15
2023-02-12T22:31:53.432Z,12.21
2023-02-12T22:34:22.125Z,11.94
2023-02-12T22:36:50.793Z,11.52
2023-02-12T22:39:19.622Z,11.63
2023-02-12T22:41:48.464Z,11.82
2023-02-12T22:44:21.079Z,11.99
2023-02-12T22:46:50.739Z,12.02
2023-02-12T22:49:19.391Z,12.09
2023-02-12T22:51:47.970Z,12.21
2023-02-12T22:54:18.602Z,12.25
2023-02-12T22:56:50.250Z,12.17
2023-02-12T22:59:20.442Z,12.21
2023-02-12T23:01:49.038Z,12.27
2023-02-12T23:04:18.942Z,12.34
2023-02-12T23:06:48.682Z,12.44
2023-02-12T23:09:19.162Z,12.47
2023-02-12T23:11:48.652Z,12.49
2023-02-12T23:14:17.468Z,12.39
2023-02-12T23:16:47.660Z,12.20
2023-02-12T23:19:16.840Z,12.25
2023-02-12T23:21:45.469Z,12.34
2023-02-12T23:24:15.429Z,12.33
2023-02-12T23:26:44.190Z,12.30
2023-02-12T23:29:14.103Z,12.17
2023-02-12T23:31:42.792Z,12.27
2023-02-12T23:34:12.837Z,12.31
2023-02-12T23:36:41.441Z,12.25
2023-02-12T23:39:11.800Z,12.36
2023-02-12T23:41:40.373Z,12.36
2023-02-12T23:44:10.351Z,12.39
2023-02-12T23:46:39.138Z,12.38
2023-02-12T23:49:07.858Z,12.41
2023-02-12T23:51:37.835Z,12.45
2023-02-12T23:54:06.438Z,12.39
2023-02-12T23:56:35.153Z,12.34
2023-02-12T23:59:03.707Z,12.35
